Time;durP1;ratioP1;P1;durP2;ratioP2;P2;SDS_P1;SDS_P2;PMS_P1;PMS_P2;Temp;Humidity;BMP_temperature;BMP_pressure;BME280_temperature;BME280_humidity;BME280_pressure;Samples;Min_cycle;Max_cycle;Signal;HPM_P1;HPM_P2
2022/03/22 00:00:15;;;;;;;;;31.33;28.67;;;;;13.86;51.19;102269.16;5040386;28;45967;-75
2022/03/22 00:02:41;;;;;;;;;34.33;27.33;;;;;13.81;50.90;102271.66;5048238;28;45909;-73
2022/03/22 00:05:07;;;;;;;;;31.67;29.00;;;;;13.76;50.66;102273.09;5045036;28;45854;-75
2022/03/22 00:07:32;;;;;;;;;29.33;27.00;;;;;13.74;50.94;102280.72;5053298;28;45667;-78
2022/03/22 00:10:01;;;;;;;;;34.33;28.33;;;;;13.69;50.79;102276.81;5054047;28;46217;-75
2022/03/22 00:12:26;;;;;;;;;31.00;29.33;;;;;13.65;51.71;102281.00;5053142;28;45431;-73
2022/03/22 00:14:52;;;;;;;;;32.67;26.67;;;;;13.59;51.91;102283.47;5054135;28;45418;-79
2022/03/22 00:17:17;;;;;;;;;31.00;28.00;;;;;13.59;51.85;102285.38;5067233;28;45842;-74
2022/03/22 00:19:43;;;;;;;;;39.33;31.67;;;;;13.57;52.23;102291.06;5051081;28;45722;-76
2022/03/22 00:22:10;;;;;;;;;28.00;23.00;;;;;13.56;51.93;102283.88;5055885;28;45400;-79
2022/03/22 00:24:36;;;;;;;;;20.33;19.67;;;;;13.53;52.27;102292.50;5053852;28;45775;-76
2022/03/22 00:27:01;;;;;;;;;34.00;29.67;;;;;13.51;51.80;102286.31;5053297;28;45749;-78
2022/03/22 00:29:26;;;;;;;;;28.00;27.00;;;;;13.51;51.88;102293.75;5069736;28;46908;-79
2022/03/22 00:31:52;;;;;;;;;28.67;21.00;;;;;13.46;51.86;102282.41;5052645;28;45868;-77
2022/03/22 00:34:17;;;;;;;;;29.00;25.33;;;;;13.47;52.22;102287.75;5066128;27;45628;-74
2022/03/22 00:36:58;;;;;;;;;31.00;26.33;;;;;13.44;52.40;102296.38;5054770;28;45484;-79
2022/03/22 00:39:25;;;;;;;;;29.67;28.33;;;;;13.40;52.41;102295.09;5054107;28;45693;-74
2022/03/22 00:41:52;;;;;;;;;29.67;27.33;;;;;13.38;52.18;102289.75;5055589;28;47293;-74
2022/03/22 00:44:17;;;;;;;;;31.00;29.67;;;;;13.35;52.42;102292.03;5053856;28;45595;-71
2022/03/22 00:46:43;;;;;;;;;26.00;25.00;;;;;13.29;52.46;102290.00;5053945;28;45805;-78
2022/03/22 00:49:08;;;;;;;;;33.00;25.33;;;;;13.27;52.95;102292.09;5053498;28;45492;-79
2022/03/22 00:51:34;;;;;;;;;30.00;26.67;;;;;13.23;52.60;102297.09;5068481;27;45928;-78
2022/03/22 00:54:02;;;;;;;;;28.33;26.67;;;;;13.20;52.89;102295.59;5053743;28;45610;-75
2022/03/22 00:56:28;;;;;;;;;33.33;29.33;;;;;13.14;52.59;102293.56;5051786;27;45486;-79
2022/03/22 01:00:01;;;;;;;;;33.67;26.67;;;;;13.11;52.66;102302.22;5051691;28;47499;-78
2022/03/22 01:01:40;;;;;;;;;32.67;26.33;;;;;13.06;53.34;102301.94;5053578;28;45759;-78
2022/03/22 01:04:06;;;;;;;;;30.33;28.67;;;;;13.03;52.87;102300.41;5053110;28;45763;-74
2022/03/22 01:06:32;;;;;;;;;31.67;27.67;;;;;13.02;53.01;102297.84;5053516;28;45347;-72
2022/03/22 01:08:57;;;;;;;;;33.33;25.00;;;;;13.00;52.77;102297.19;5052482;27;46845;-75
2022/03/22 01:11:22;;;;;;;;;28.33;25.00;;;;;13.01;52.80;102301.66;5054819;27;46047;-74
2022/03/22 01:13:49;;;;;;;;;21.67;19.33;;;;;13.02;52.17;102298.72;5055054;28;45691;-79
2022/03/22 01:16:15;;;;;;;;;34.33;29.00;;;;;13.06;53.06;102296.44;5054670;28;45774;-74
2022/03/22 01:18:40;;;;;;;;;29.33;27.00;;;;;13.05;52.98;102292.84;5053271;28;45819;-77
2022/03/22 01:21:06;;;;;;;;;27.00;26.00;;;;;13.02;52.82;102290.44;5053217;28;45493;-73
2022/03/22 01:23:31;;;;;;;;;34.33;29.00;;;;;13.04;52.84;102296.63;5051612;28;45517;-75
2022/03/22 01:25:57;;;;;;;;;31.67;27.33;;;;;13.01;52.84;102290.66;5052491;28;45702;-77
2022/03/22 01:28:22;;;;;;;;;41.67;28.67;;;;;12.99;53.14;102287.19;5069766;28;47185;-78
2022/03/22 01:30:48;;;;;;;;;31.67;29.00;;;;;12.97;52.86;102290.13;5052638;27;45773;-79
2022/03/22 01:33:15;;;;;;;;;36.33;28.67;;;;;12.96;53.15;102288.41;5054284;28;45359;-77
2022/03/22 01:35:41;;;;;;;;;32.00;28.67;;;;;12.92;52.73;102289.84;5053180;28;45399;-80
2022/03/22 01:38:07;;;;;;;;;32.00;27.33;;;;;12.87;53.06;102290.41;5052483;28;47936;-80
2022/03/22 01:40:33;;;;;;;;;32.33;29.33;;;;;12.81;52.81;102287.53;5054944;28;45616;-79
2022/03/22 01:42:59;;;;;;;;;28.67;26.00;;;;;12.79;52.68;102293.22;5054695;28;45451;-78
2022/03/22 01:45:25;;;;;;;;;29.67;25.67;;;;;12.67;52.52;102283.72;5054634;28;45974;-78
2022/03/22 01:47:52;;;;;;;;;32.33;30.67;;;;;12.69;52.76;102285.25;5054160;27;45458;-79
2022/03/22 01:50:20;;;;;;;;;30.33;28.33;;;;;12.69;52.77;102284.38;5053445;28;45387;-79
2022/03/22 01:52:45;;;;;;;;;36.67;29.67;;;;;12.67;52.79;102279.06;5052309;28;45758;-78
2022/03/22 01:55:14;;;;;;;;;33.67;30.67;;;;;12.68;53.09;102279.94;5051755;28;45980;-79
2022/03/22 01:57:40;;;;;;;;;32.33;28.00;;;;;12.68;52.58;102274.41;5053354;28;45558;-73
2022/03/22 02:00:12;;;;;;;;;28.00;27.67;;;;;12.65;52.69;102281.16;5052696;28;45746;-74
2022/03/22 02:08:08;;;;;;;;;24.00;20.67;;;;;12.63;52.48;102277.69;5052349;28;45717;-75
2022/03/22 02:10:35;;;;;;;;;32.00;29.33;;;;;12.61;52.81;102289.97;5052667;28;45818;-74
2022/03/22 02:13:01;;;;;;;;;31.33;25.00;;;;;12.60;52.97;102277.22;5053768;28;45779;-78
2022/03/22 02:15:27;;;;;;;;;30.00;24.33;;;;;12.57;52.31;102272.94;5059103;28;45517;-78
2022/03/22 02:17:52;;;;;;;;;34.67;30.67;;;;;12.56;52.31;102281.38;5051730;28;46813;-75
2022/03/22 02:20:18;;;;;;;;;29.33;25.00;;;;;12.53;52.58;102277.13;5053218;28;45497;-79
2022/03/22 02:22:43;;;;;;;;;38.33;31.67;;;;;12.50;52.90;102277.47;5052797;28;45771;-77
2022/03/22 02:25:19;;;;;;;;;30.00;28.67;;;;;12.41;52.62;102273.06;5053795;28;45707;-79
2022/03/22 02:30:45;;;;;;;;;29.67;25.67;;;;;12.38;52.56;102267.94;5054979;28;45796;-73
2022/03/22 02:33:11;;;;;;;;;31.33;23.67;;;;;12.37;52.17;102278.09;5055186;28;45439;-73
2022/03/22 02:35:37;;;;;;;;;27.00;25.33;;;;;12.36;52.55;102279.13;5052206;28;45872;-74
2022/03/22 02:38:09;;;;;;;;;25.00;22.67;;;;;12.30;52.52;102272.44;5056972;28;45651;-79
2022/03/22 02:40:35;;;;;;;;;33.33;27.00;;;;;12.33;52.97;102279.50;5055694;28;45492;-78
2022/03/22 02:43:01;;;;;;;;;29.00;23.67;;;;;12.34;52.42;102281.22;5053644;28;45496;-79
2022/03/22 02:45:27;;;;;;;;;32.00;24.67;;;;;12.29;52.51;102280.88;5051502;28;46890;-78
2022/03/22 02:47:52;;;;;;;;;26.00;25.00;;;;;12.31;52.78;102285.19;5052621;28;46060;-74
2022/03/22 02:50:18;;;;;;;;;31.33;27.00;;;;;12.30;52.36;102279.84;5052511;28;45958;-73
2022/03/22 02:52:45;;;;;;;;;33.00;29.00;;;;;12.27;52.38;102281.06;5052851;28;45390;-73
2022/03/22 02:55:11;;;;;;;;;34.00;28.00;;;;;12.23;52.64;102281.63;5053031;28;45547;-78
2022/03/22 02:57:38;;;;;;;;;30.67;29.33;;;;;12.20;52.70;102282.88;5054339;28;45706;-74
2022/03/22 03:00:07;;;;;;;;;35.33;30.00;;;;;12.17;52.57;102284.06;5063325;28;45624;-78
2022/03/22 03:02:39;;;;;;;;;33.67;29.00;;;;;12.12;52.71;102289.25;5037810;28;45399;-77
2022/03/22 03:05:05;;;;;;;;;39.00;33.33;;;;;12.09;52.19;102284.09;5050539;28;45583;-74
2022/03/22 03:07:30;;;;;;;;;36.67;31.00;;;;;12.08;52.01;102284.28;5051277;28;45460;-78
2022/03/22 03:09:56;;;;;;;;;34.33;29.33;;;;;12.03;52.14;102290.34;5050934;28;45780;-78
2022/03/22 03:12:21;;;;;;;;;34.33;32.00;;;;;11.97;52.17;102282.81;5052519;28;45764;-73
2022/03/22 03:14:47;;;;;;;;;31.33;26.33;;;;;11.97;51.88;102282.81;5049526;28;45637;-79
2022/03/22 03:17:14;;;;;;;;;31.33;28.00;;;;;12.00;51.92;102296.19;5052433;28;45525;-79
2022/03/22 03:19:41;;;;;;;;;29.67;29.67;;;;;11.99;52.12;102298.09;5052505;28;45497;-79
2022/03/22 03:22:08;;;;;;;;;29.33;25.00;;;;;11.99;51.89;102305.47;5067581;28;45805;-78
2022/03/22 03:24:33;;;;;;;;;30.67;25.67;;;;;11.98;51.81;102307.38;5062189;27;45881;-79
2022/03/22 03:26:59;;;;;;;;;36.00;28.67;;;;;11.98;52.20;102306.53;5051083;28;45952;-77
2022/03/22 03:29:25;;;;;;;;;33.00;27.00;;;;;11.97;51.68;102293.81;5051555;28;45860;-73
2022/03/22 03:31:51;;;;;;;;;28.00;27.00;;;;;11.99;51.91;102305.47;5051234;28;45718;-74
2022/03/22 03:34:17;;;;;;;;;31.00;28.67;;;;;12.00;51.68;102309.94;5049407;28;45956;-77
2022/03/22 03:36:43;;;;;;;;;30.67;26.00;;;;;12.01;51.62;102301.50;5051262;28;45926;-78
2022/03/22 03:39:09;;;;;;;;;33.33;30.00;;;;;12.02;51.81;102305.16;5049340;27;45765;-75
2022/03/22 03:41:53;;;;;;;;;35.67;25.33;;;;;12.00;51.63;102298.94;5050221;28;45453;-78
2022/03/22 03:47:11;;;;;;;;;29.33;25.33;;;;;11.92;51.20;102285.22;5050922;28;45752;-74
2022/03/22 03:49:51;;;;;;;;;26.00;23.00;;;;;11.95;51.29;102298.66;5051198;27;45669;-79
2022/03/22 03:52:22;;;;;;;;;32.33;25.33;;;;;11.96;51.15;102305.84;5067795;28;45284;-79
2022/03/22 03:54:48;;;;;;;;;28.33;27.33;;;;;12.00;50.58;102309.94;5064506;28;45530;-78
2022/03/22 03:57:14;;;;;;;;;25.00;24.67;;;;;12.00;50.63;102304.44;5056103;28;45870;-78
2022/03/22 03:59:41;;;;;;;;;26.00;25.00;;;;;12.04;50.69;102305.81;5052783;28;45462;-77
2022/03/22 04:02:08;;;;;;;;;29.67;25.00;;;;;12.06;50.46;102314.72;5053266;28;45527;-79
2022/03/22 04:04:35;;;;;;;;;28.67;27.00;;;;;12.07;50.42;102302.69;5057624;28;45560;-78
2022/03/22 04:07:01;;;;;;;;;25.00;24.33;;;;;12.06;50.68;102317.47;5074550;27;46418;-72
2022/03/22 04:09:27;;;;;;;;;31.67;24.00;;;;;12.03;50.10;102303.25;5075748;27;45806;-79
2022/03/22 04:11:52;;;;;;;;;29.00;25.00;;;;;12.04;49.93;102316.81;5076102;27;45690;-78
2022/03/22 04:14:18;;;;;;;;;31.00;25.00;;;;;12.03;50.20;102317.00;5075682;28;45440;-78
2022/03/22 04:16:44;;;;;;;;;29.33;22.67;;;;;12.01;50.15;102322.66;5075712;27;45870;-81
2022/03/22 04:19:09;;;;;;;;;31.33;25.00;;;;;12.01;50.04;102312.50;5091348;27;45737;-75
2022/03/22 04:21:36;;;;;;;;;24.67;24.00;;;;;12.01;49.91;102318.00;5068270;27;45710;-74
2022/03/22 04:24:09;;;;;;;;;21.00;19.33;;;;;12.00;50.28;102320.94;5049337;28;45395;-79
2022/03/22 04:26:36;;;;;;;;;27.00;23.00;;;;;11.99;49.99;102322.84;5053079;28;45765;-74
2022/03/22 04:34:38;;;;;;;;;31.00;26.33;;;;;11.89;50.76;102324.06;5074082;28;45768;-73
2022/03/22 04:37:03;;;;;;;;;28.67;26.67;;;;;11.82;50.94;102323.91;5073805;27;46138;-73
2022/03/22 04:39:30;;;;;;;;;22.00;20.00;;;;;11.78;51.13;102326.19;5063011;27;45820;-74
2022/03/22 04:41:57;;;;;;;;;30.00;26.00;;;;;11.69;51.21;102319.00;5046935;28;45598;-75
2022/03/22 04:44:24;;;;;;;;;32.00;28.67;;;;;11.69;50.82;102327.25;5048674;28;45697;-79
2022/03/22 04:46:50;;;;;;;;;33.67;27.33;;;;;11.66;51.02;102330.31;5053096;28;45781;-79
2022/03/22 04:49:16;;;;;;;;;27.67;25.67;;;;;11.64;51.44;102326.91;5044166;28;45521;-79
2022/03/22 04:57:10;;;;;;;;;34.00;27.00;;;;;11.58;51.20;102339.47;5047703;28;45942;-74
2022/03/22 04:59:35;;;;;;;;;41.00;30.67;;;;;11.53;51.26;102336.41;5055694;28;45685;-75
2022/03/22 05:02:00;;;;;;;;;31.67;27.67;;;;;11.49;51.75;102335.88;5051990;28;45481;-78
2022/03/22 05:04:26;;;;;;;;;29.67;26.33;;;;;11.48;51.53;102344.28;5051112;28;47142;-75
2022/03/22 05:06:54;;;;;;;;;30.33;28.00;;;;;11.42;51.37;102334.88;5052283;28;46204;-79
2022/03/22 05:09:20;;;;;;;;;41.33;30.67;;;;;11.42;51.67;102351.38;5053364;28;45518;-79
2022/03/22 05:11:45;;;;;;;;;33.33;28.67;;;;;11.40;51.09;102345.16;5053642;28;45429;-80
2022/03/22 05:14:11;;;;;;;;;24.67;23.00;;;;;11.43;50.30;102352.22;5054089;28;45584;-78
2022/03/22 05:16:36;;;;;;;;;32.33;28.00;;;;;11.44;50.80;102352.03;5057759;28;46941;-79
2022/03/22 05:19:06;;;;;;;;;28.33;26.00;;;;;11.51;50.71;102351.34;5052618;28;45414;-79
2022/03/22 05:21:32;;;;;;;;;26.33;26.00;;;;;11.53;50.43;102357.53;5055076;28;45811;-79
2022/03/22 05:23:58;;;;;;;;;34.67;30.33;;;;;11.54;49.95;102350.97;5042100;28;45410;-78
2022/03/22 05:26:27;;;;;;;;;32.33;26.00;;;;;11.56;50.93;102349.78;5033339;28;45323;-80
2022/03/22 05:28:53;;;;;;;;;25.33;21.00;;;;;11.64;49.77;102365.38;5046901;28;45455;-75
2022/03/22 05:31:21;;;;;;;;;32.00;27.00;;;;;11.65;50.32;102367.94;5051669;28;45465;-78
2022/03/22 05:33:48;;;;;;;;;30.00;25.67;;;;;11.66;49.88;102364.19;5052761;28;45714;-79
2022/03/22 05:36:13;;;;;;;;;32.00;27.67;;;;;11.70;50.03;102364.66;5053009;28;46038;-78
2022/03/22 05:38:39;;;;;;;;;34.33;30.67;;;;;11.73;49.81;102367.06;5052431;28;45750;-79
2022/03/22 05:41:04;;;;;;;;;36.33;26.33;;;;;11.74;49.49;102374.28;5052893;28;45641;-76
2022/03/22 05:43:31;;;;;;;;;39.00;31.00;;;;;11.79;49.00;102374.59;5052220;28;45860;-74
2022/03/22 05:45:56;;;;;;;;;31.00;23.67;;;;;11.83;49.19;102370.47;5067244;28;47248;-75
2022/03/22 05:48:23;;;;;;;;;29.67;26.67;;;;;11.84;49.08;102366.69;5046583;28;45847;-73
2022/03/22 05:50:49;;;;;;;;;26.33;21.33;;;;;11.89;48.43;102373.56;5058716;28;45560;-73
2022/03/22 05:53:31;;;;;;;;;33.33;26.00;;;;;11.97;48.75;102384.53;5042405;28;45411;-78
2022/03/22 05:56:00;;;;;;;;;26.00;25.00;;;;;12.02;48.15;102390.38;5052955;28;45772;-78
2022/03/22 05:58:26;;;;;;;;;24.67;22.33;;;;;12.10;47.79;102384.00;5045701;28;45936;-78
2022/03/22 06:00:52;;;;;;;;;24.67;20.33;;;;;12.23;47.51;102388.91;5046630;28;45821;-79
2022/03/22 06:03:17;;;;;;;;;24.00;20.67;;;;;12.34;47.04;102389.34;5047060;28;45873;-72
2022/03/22 06:05:43;;;;;;;;;23.00;22.00;;;;;12.44;47.09;102383.63;5052342;28;46465;-76
2022/03/22 06:08:09;;;;;;;;;28.33;25.00;;;;;12.57;46.83;102383.03;5048572;28;45358;-78
2022/03/22 06:10:34;;;;;;;;;28.00;25.00;;;;;12.70;46.45;102383.28;5043753;28;45764;-76
2022/03/22 06:13:00;;;;;;;;;26.33;24.67;;;;;12.85;45.61;102391.59;5053427;28;45710;-77
2022/03/22 06:15:28;;;;;;;;;26.33;23.00;;;;;12.95;45.50;102402.38;5054180;28;45628;-75
2022/03/22 06:18:02;;;;;;;;;24.67;21.33;;;;;13.07;45.49;102400.91;5039869;28;46172;-78
2022/03/22 06:20:31;;;;;;;;;24.33;23.00;;;;;13.11;45.30;102403.28;5048301;28;46001;-73
2022/03/22 06:22:57;;;;;;;;;29.00;25.00;;;;;13.19;44.83;102406.84;5052541;28;45844;-72
2022/03/22 06:25:23;;;;;;;;;25.33;22.67;;;;;13.34;44.40;102411.56;5052787;28;45770;-74
2022/03/22 06:27:51;;;;;;;;;25.67;24.00;;;;;13.41;44.06;102401.50;5052301;28;45829;-76
2022/03/22 06:30:18;;;;;;;;;23.33;21.33;;;;;13.51;44.17;102409.50;5048263;28;45951;-75
2022/03/22 06:33:08;;;;;;;;;23.67;21.33;;;;;13.62;44.40;102410.94;5049912;28;45835;-82
2022/03/22 06:35:34;;;;;;;;;21.33;21.33;;;;;13.67;44.09;102400.22;5055149;28;45718;-78
2022/03/22 06:38:01;;;;;;;;;24.67;22.00;;;;;13.77;42.87;102414.56;5046991;28;45935;-76
2022/03/22 06:40:29;;;;;;;;;26.67;25.33;;;;;13.82;43.66;102401.09;5030062;28;45612;-79
2022/03/22 06:42:56;;;;;;;;;24.67;22.67;;;;;13.88;43.01;102402.22;5048843;28;45853;-79
2022/03/22 06:45:22;;;;;;;;;30.67;26.00;;;;;14.17;42.45;102409.63;5066033;27;47163;-79
2022/03/22 06:47:48;;;;;;;;;25.00;22.00;;;;;14.47;42.18;102404.03;5046239;28;45663;-78
2022/03/22 06:50:15;;;;;;;;;22.33;22.33;;;;;14.92;41.37;102420.50;5053066;28;45438;-78
2022/03/22 06:52:41;;;;;;;;;24.33;21.33;;;;;15.24;40.47;102427.41;5055535;28;45890;-80
2022/03/22 06:55:08;;;;;;;;;30.00;26.00;;;;;15.67;39.57;102419.03;5052480;28;46529;-79
2022/03/22 06:57:35;;;;;;;;;27.67;25.67;;;;;15.89;38.47;102413.47;5045530;28;45790;-77
2022/03/22 07:00:04;;;;;;;;;24.00;17.67;;;;;16.22;38.29;102421.09;5042961;28;47394;-79
2022/03/22 07:02:31;;;;;;;;;27.67;23.67;;;;;16.58;37.40;102425.50;5038946;28;46424;-77
2022/03/22 07:04:56;;;;;;;;;27.67;26.00;;;;;16.83;36.37;102430.47;5034195;28;46459;-77
2022/03/22 07:07:22;;;;;;;;;27.00;24.67;;;;;17.24;35.75;102419.25;5037317;28;45977;-74
2022/03/22 07:09:48;;;;;;;;;28.00;23.67;;;;;17.50;35.42;102420.34;5037564;28;45855;-76
2022/03/22 07:12:25;;;;;;;;;25.67;23.67;;;;;17.65;35.26;102420.13;5047621;28;45367;-76
2022/03/22 07:14:50;;;;;;;;;26.67;24.67;;;;;18.00;34.19;102422.63;5049725;28;46409;-78
2022/03/22 07:17:16;;;;;;;;;23.67;22.00;;;;;18.27;34.14;102422.53;5030796;28;45505;-76
2022/03/22 07:19:41;;;;;;;;;25.00;23.67;;;;;18.56;33.27;102429.44;5031712;28;45800;-78
2022/03/22 07:22:10;;;;;;;;;21.00;20.00;;;;;19.09;32.93;102425.56;5031106;28;45834;-77
2022/03/22 07:24:36;;;;;;;;;30.00;23.33;;;;;19.48;31.84;102425.47;5029802;28;46948;-79
2022/03/22 07:27:01;;;;;;;;;29.33;24.67;;;;;19.74;31.30;102427.97;5031155;28;45412;-78
2022/03/22 07:29:27;;;;;;;;;25.00;21.33;;;;;19.83;31.55;102428.56;5066908;28;45810;-78
2022/03/22 07:31:52;;;;;;;;;26.67;22.67;;;;;19.82;31.10;102434.34;5084130;27;46513;-79
2022/03/22 07:34:20;;;;;;;;;23.67;19.33;;;;;19.70;31.38;102434.22;5039470;28;45485;-79
2022/03/22 07:36:46;;;;;;;;;22.67;16.33;;;;;19.39;31.36;102430.47;5053873;28;45445;-75
2022/03/22 07:39:16;;;;;;;;;22.50;20.50;;;;;19.14;31.32;102431.28;5053214;27;45459;-74
2022/03/22 07:41:44;;;;;;;;;27.33;26.00;;;;;18.79;31.94;102431.69;5062795;28;45394;-75
2022/03/22 07:44:13;;;;;;;;;32.67;23.67;;;;;18.43;32.79;102432.28;5056167;28;45491;-73
2022/03/22 07:46:42;;;;;;;;;28.00;23.33;;;;;18.31;32.89;102437.72;5057221;27;45535;-73
2022/03/22 07:54:36;;;;;;;;;23.33;22.33;;;;;17.89;33.77;102446.38;5029200;28;45813;-70
2022/03/22 07:57:03;;;;;;;;;28.00;21.67;;;;;17.80;34.15;102445.69;5029816;28;45794;-72
2022/03/22 07:59:28;;;;;;;;;33.67;25.00;;;;;17.97;33.91;102442.50;5030119;28;45718;-76
2022/03/22 08:01:54;;;;;;;;;29.67;25.33;;;;;17.95;33.55;102436.31;5039938;28;45663;-78
2022/03/22 08:04:20;;;;;;;;;31.00;23.00;;;;;17.82;33.58;102446.31;5041572;28;46090;-72
2022/03/22 08:06:45;;;;;;;;;29.33;22.33;;;;;17.89;33.00;102443.59;5032240;28;46087;-77
2022/03/22 08:09:11;;;;;;;;;23.33;21.67;;;;;17.94;33.58;102434.59;5047615;28;45400;-72
2022/03/22 08:11:43;;;;;;;;;24.67;19.33;;;;;17.96;33.74;102455.53;5066152;28;45966;-77
2022/03/22 08:14:09;;;;;;;;;28.67;25.33;;;;;17.94;33.52;102460.44;5056011;28;45648;-73
2022/03/22 08:16:36;;;;;;;;;24.67;21.33;;;;;17.99;33.23;102454.22;5051142;28;45429;-80
2022/03/22 08:19:06;;;;;;;;;27.33;24.33;;;;;18.00;33.18;102447.63;5049716;28;45449;-77
2022/03/22 08:21:33;;;;;;;;;28.00;25.67;;;;;18.00;33.13;102461.50;5047482;28;45490;-75
2022/03/22 08:23:58;;;;;;;;;28.67;26.00;;;;;18.01;32.64;102460.44;5049976;28;45700;-71
2022/03/22 08:26:24;;;;;;;;;25.33;20.67;;;;;18.11;33.69;102462.75;5048915;28;45632;-72
2022/03/22 08:29:22;;;;;;;;;31.67;25.67;;;;;18.21;33.21;102463.16;5056453;28;45535;-72
2022/03/22 08:31:47;;;;;;;;;29.00;25.67;;;;;18.16;32.81;102458.25;5042529;28;45806;-76
2022/03/22 08:34:12;;;;;;;;;32.67;27.00;;;;;18.13;33.56;102444.81;5049984;28;45937;-79
2022/03/22 08:36:38;;;;;;;;;23.67;23.33;;;;;18.17;32.61;102448.88;5049448;28;45731;-78
2022/03/22 08:39:04;;;;;;;;;24.33;22.00;;;;;18.30;33.06;102450.72;5048052;28;45755;-78
2022/03/22 08:41:31;;;;;;;;;34.67;28.00;;;;;18.43;32.19;102447.06;5051908;28;45755;-75
2022/03/22 08:43:56;;;;;;;;;29.33;29.33;;;;;18.50;32.25;102447.88;5057137;28;47604;-75
2022/03/22 08:46:25;;;;;;;;;24.67;23.67;;;;;18.57;32.44;102449.78;5054300;27;45350;-75
2022/03/22 08:48:52;;;;;;;;;31.00;25.67;;;;;18.65;32.07;102453.16;5054676;28;45406;-74
2022/03/22 08:51:24;;;;;;;;;29.00;25.00;;;;;18.76;31.47;102451.59;5071218;28;46103;-85
2022/03/22 08:53:50;;;;;;;;;29.33;24.00;;;;;18.81;31.68;102451.78;5055814;28;46643;-80
2022/03/22 08:56:16;;;;;;;;;26.33;24.67;;;;;18.82;32.17;102453.50;5055496;28;45777;-81
2022/03/22 08:58:42;;;;;;;;;32.00;27.00;;;;;18.77;31.03;102444.09;5056577;28;45818;-84
2022/03/22 09:01:08;;;;;;;;;23.33;22.00;;;;;18.79;30.45;102448.38;5058267;28;45449;-79
2022/03/22 09:03:35;;;;;;;;;28.00;25.33;;;;;18.85;28.76;102450.28;5055996;28;45785;-80
2022/03/22 09:06:12;;;;;;;;;21.33;19.67;;;;;18.88;28.19;102446.22;5052984;28;45820;-77
2022/03/22 09:08:45;;;;;;;;;22.33;22.00;;;;;18.76;27.26;102437.72;5055735;28;45401;-80
2022/03/22 09:11:10;;;;;;;;;25.00;22.33;;;;;18.88;26.49;102452.63;5052303;28;46186;-78
2022/03/22 09:13:37;;;;;;;;;19.33;16.67;;;;;18.95;25.19;102441.47;5052093;28;48417;-77
2022/03/22 09:16:04;;;;;;;;;20.00;16.67;;;;;19.07;25.08;102455.50;5053272;27;45708;-76
2022/03/22 09:18:30;;;;;;;;;21.33;19.00;;;;;19.06;24.27;102434.34;5053594;27;45494;-78
2022/03/22 09:21:00;;;;;;;;;19.67;17.00;;;;;19.16;24.59;102448.63;5052570;28;45604;-78
2022/03/22 09:23:25;;;;;;;;;20.33;18.33;;;;;19.30;24.74;102445.72;5048656;28;45816;-80
2022/03/22 09:25:51;;;;;;;;;18.67;17.00;;;;;19.64;23.90;102462.97;5052042;28;45445;-79
2022/03/22 09:28:16;;;;;;;;;20.33;15.00;;;;;20.41;21.90;102454.28;5052532;28;45703;-78
2022/03/22 09:30:42;;;;;;;;;16.67;16.67;;;;;21.69;20.83;102451.34;5051361;28;45711;-77
2022/03/22 09:33:11;;;;;;;;;17.67;15.00;;;;;22.78;19.26;102435.84;5048877;28;47849;-78
2022/03/22 09:35:36;;;;;;;;;14.00;14.00;;;;;23.79;17.28;102437.06;5034420;28;45508;-77
2022/03/22 09:38:03;;;;;;;;;15.33;11.67;;;;;24.99;16.75;102446.75;5043183;28;45818;-78
2022/03/22 09:40:28;;;;;;;;;10.67;8.00;;;;;25.83;15.44;102450.00;5043732;28;45710;-78
2022/03/22 09:42:55;;;;;;;;;15.00;12.67;;;;;26.63;14.89;102454.66;5059626;28;46336;-77
2022/03/22 09:45:27;;;;;;;;;19.00;16.00;;;;;27.47;14.19;102446.94;5045257;28;45791;-80
2022/03/22 09:47:59;;;;;;;;;17.67;16.33;;;;;28.07;13.29;102460.41;5048184;28;45484;-77
2022/03/22 09:53:13;;;;;;;;;16.33;12.33;;;;;28.48;12.38;102443.34;5050030;28;45995;-77
2022/03/22 09:55:39;;;;;;;;;18.00;14.33;;;;;28.73;12.12;102452.81;5040767;28;45755;-77
2022/03/22 09:58:05;;;;;;;;;18.33;16.00;;;;;29.00;12.56;102439.09;5057931;28;45644;-77
2022/03/22 10:00:30;;;;;;;;;14.33;12.33;;;;;29.04;12.19;102437.38;5053742;28;45757;-76
2022/03/22 10:02:56;;;;;;;;;20.67;16.33;;;;;29.34;11.75;102443.09;5053119;28;46328;-78
2022/03/22 10:05:23;;;;;;;;;13.00;10.67;;;;;29.65;11.22;102445.66;5053959;28;45442;-82
2022/03/22 10:08:18;;;;;;;;;11.33;11.33;;;;;29.99;11.82;102439.94;5054285;28;45753;-80
2022/03/22 10:10:55;;;;;;;;;13.33;12.33;;;;;30.39;11.99;102440.59;5047057;28;45427;-79
2022/03/22 10:13:21;;;;;;;;;17.33;15.00;;;;;30.23;11.34;102445.59;5044723;28;45720;-74
2022/03/22 10:15:46;;;;;;;;;14.00;12.67;;;;;30.20;11.14;102446.22;5050429;28;45791;-77
2022/03/22 10:18:13;;;;;;;;;12.33;12.33;;;;;30.34;11.22;102437.81;5043740;28;45568;-74
2022/03/22 10:20:40;;;;;;;;;14.67;12.33;;;;;30.55;11.04;102434.75;5049723;28;46237;-74
2022/03/22 10:23:09;;;;;;;;;14.33;11.67;;;;;30.66;10.97;102433.47;5049907;28;45705;-80
2022/03/22 10:25:39;;;;;;;;;14.00;14.00;;;;;30.97;10.88;102428.19;5053109;28;45417;-80
2022/03/22 10:28:07;;;;;;;;;12.00;9.67;;;;;31.35;10.62;102432.97;5055736;28;45865;-83
2022/03/22 10:30:34;;;;;;;;;16.33;14.00;;;;;31.70;11.04;102427.84;5048290;28;45821;-81
2022/03/22 10:33:00;;;;;;;;;14.33;12.67;;;;;31.80;10.20;102432.47;5052112;28;45451;-76
2022/03/22 10:35:34;;;;;;;;;16.67;15.33;;;;;31.29;10.66;102428.56;5050741;28;45709;-82
2022/03/22 10:38:09;;;;;;;;;15.67;13.67;;;;;31.25;11.17;102418.97;5052307;28;45997;-78
2022/03/22 10:40:44;;;;;;;;;15.33;13.00;;;;;30.66;10.36;102421.28;5049765;28;46494;-76
2022/03/22 10:43:14;;;;;;;;;8.00;8.00;;;;;30.39;10.86;102426.44;5044465;28;45608;-76
2022/03/22 10:45:52;;;;;;;;;10.67;10.33;;;;;30.11;10.90;102428.22;5053417;28;45415;-76
2022/03/22 10:48:30;;;;;;;;;17.67;17.67;;;;;29.98;11.21;102426.94;5051468;28;45510;-79
2022/03/22 10:50:59;;;;;;;;;16.67;14.33;;;;;29.91;11.26;102423.63;5052341;28;45584;-80
2022/03/22 10:53:29;;;;;;;;;13.00;13.00;;;;;29.73;11.38;102423.22;5054376;28;46123;-76
2022/03/22 10:56:05;;;;;;;;;18.67;14.00;;;;;29.12;11.57;102418.97;5051473;28;45698;-80
2022/03/22 10:58:36;;;;;;;;;12.67;12.67;;;;;28.62;11.78;102413.34;5049564;28;45904;-76
2022/03/22 11:01:03;;;;;;;;;17.33;15.67;;;;;28.09;12.09;102413.03;5049258;28;45791;-81
2022/03/22 11:03:32;;;;;;;;;15.67;14.00;;;;;27.88;12.92;102409.41;5050794;28;47300;-81
2022/03/22 11:06:02;;;;;;;;;18.67;14.33;;;;;27.43;12.36;102412.03;5041942;28;45431;-82
2022/03/22 11:08:28;;;;;;;;;16.33;14.67;;;;;27.00;13.13;102411.41;5051117;28;45741;-80
2022/03/22 11:10:54;;;;;;;;;15.67;13.00;;;;;26.80;13.14;102400.94;5054573;28;45381;-81
2022/03/22 11:13:21;;;;;;;;;12.67;12.67;;;;;26.24;13.22;102394.88;5053663;28;45898;-82
2022/03/22 11:15:48;;;;;;;;;16.00;15.67;;;;;25.79;13.43;102401.06;5069011;28;45493;-82
2022/03/22 11:18:16;;;;;;;;;16.33;13.33;;;;;25.51;13.48;102391.88;5053358;28;45571;-75
2022/03/22 11:20:58;;;;;;;;;12.33;12.33;;;;;25.35;13.73;102402.19;5055216;28;45339;-81
2022/03/22 11:23:26;;;;;;;;;16.00;15.00;;;;;25.12;14.14;102403.34;5059032;28;45859;-77
2022/03/22 11:25:52;;;;;;;;;17.00;14.33;;;;;24.95;14.09;102386.63;5056393;28;45347;-77
2022/03/22 11:28:23;;;;;;;;;17.33;15.67;;;;;24.70;14.56;102393.72;5054698;27;45691;-80
2022/03/22 11:30:50;;;;;;;;;19.00;15.67;;;;;24.47;14.03;102398.44;5056623;28;45792;-82
2022/03/22 11:36:26;;;;;;;;;13.00;13.00;;;;;23.80;14.76;102391.97;5060853;28;45381;-77
2022/03/22 11:39:01;;;;;;;;;15.00;14.00;;;;;23.40;14.55;102381.00;5055134;28;44855;-76
2022/03/22 11:44:35;;;;;;;;;16.67;12.33;;;;;22.87;15.07;102363.56;5061321;28;45670;-80
2022/03/22 11:47:11;;;;;;;;;14.00;13.00;;;;;22.69;15.53;102381.41;5049078;28;45288;-76